createdAt,value
2023-01-29T00:02:16.638Z,28.45
2023-01-29T00:04:46.661Z,13.82
2023-01-29T00:07:14.502Z,22.80
2023-01-29T00:09:42.278Z,25.25
2023-01-29T00:12:10.047Z,32.65
2023-01-29T00:14:37.681Z,26.13
2023-01-29T00:17:05.364Z,22.10
2023-01-29T00:19:33.038Z,24.02
2023-01-29T00:22:02.004Z,25.27
2023-01-29T00:24:29.710Z,19.58
2023-01-29T00:26:57.448Z,22.85
2023-01-29T00:29:27.061Z,27.70
2023-01-29T00:31:55.213Z,29.65
2023-01-29T00:34:23.606Z,21.60
2023-01-29T00:36:51.207Z,30.13
2023-01-29T00:39:33.683Z,24.40
2023-01-29T00:42:24.492Z,26.70
2023-01-29T00:45:04.491Z,29.42
2023-01-29T00:47:33.453Z,26.95
2023-01-29T00:50:01.656Z,25.65
2023-01-29T00:52:29.916Z,26.77
2023-01-29T00:55:00.096Z,32.60
2023-01-29T00:57:28.767Z,27.88
2023-01-29T00:59:56.460Z,27.13
2023-01-29T01:02:41.986Z,32.85
2023-01-29T01:05:14.038Z,29.15
2023-01-29T01:07:42.063Z,33.67
2023-01-29T01:10:24.152Z,27.15
2023-01-29T01:12:53.751Z,24.55
2023-01-29T01:15:21.844Z,27.98
2023-01-29T01:17:50.110Z,29.73
2023-01-29T01:20:18.597Z,32.65
2023-01-29T01:22:46.464Z,25.95
2023-01-29T01:25:15.549Z,23.60
2023-01-29T01:27:43.262Z,28.75
2023-01-29T01:30:12.355Z,29.30
2023-01-29T01:32:40.677Z,28.63
2023-01-29T01:35:09.134Z,35.17
2023-01-29T01:37:39.420Z,37.05
2023-01-29T01:40:12.864Z,28.08
2023-01-29T01:42:42.001Z,36.42
2023-01-29T01:45:18.767Z,30.75
2023-01-29T01:47:48.064Z,33.58
2023-01-29T01:50:17.604Z,37.80
2023-01-29T01:52:46.759Z,37.40
2023-01-29T01:55:15.847Z,27.95
2023-01-29T01:57:46.001Z,35.70
2023-01-29T02:00:15.883Z,34.05
2023-01-29T02:03:01.936Z,32.63
2023-01-29T02:05:49.780Z,31.98
2023-01-29T02:08:38.297Z,29.38
2023-01-29T02:11:07.402Z,36.95
2023-01-29T02:13:37.527Z,33.35
2023-01-29T02:16:05.643Z,29.77
2023-01-29T02:18:39.651Z,37.25
2023-01-29T02:21:25.650Z,28.60
2023-01-29T02:24:05.760Z,27.92
2023-01-29T02:26:47.382Z,30.15
2023-01-29T02:29:25.330Z,30.42
2023-01-29T02:31:57.373Z,29.55
2023-01-29T02:34:30.719Z,29.88
2023-01-29T02:37:02.535Z,35.28
2023-01-29T02:39:33.453Z,32.58
2023-01-29T02:42:03.561Z,31.23
2023-01-29T02:44:36.560Z,32.45
2023-01-29T02:47:06.816Z,33.65
2023-01-29T02:49:37.045Z,27.83
2023-01-29T02:52:09.005Z,25.63
2023-01-29T02:54:41.375Z,30.15
2023-01-29T02:57:16.570Z,49.28
2023-01-29T02:59:52.249Z,29.20
2023-01-29T03:02:21.532Z,27.38
2023-01-29T03:04:51.490Z,31.27
2023-01-29T03:07:38.384Z,31.42
2023-01-29T03:10:13.529Z,25.42
2023-01-29T03:12:42.437Z,32.95
2023-01-29T03:15:15.371Z,35.70
2023-01-29T03:17:46.838Z,29.10
2023-01-29T03:20:16.691Z,38.03
2023-01-29T03:22:46.516Z,33.53
2023-01-29T03:25:32.943Z,28.08
2023-01-29T03:28:18.795Z,31.98
2023-01-29T03:31:07.317Z,37.60
2023-01-29T03:33:42.014Z,29.17
2023-01-29T03:36:14.824Z,36.03
2023-01-29T03:38:42.932Z,27.63
2023-01-29T03:41:13.196Z,38.13
2023-01-29T03:43:43.893Z,33.95
2023-01-29T03:46:19.132Z,34.67
2023-01-29T03:48:53.038Z,31.13
2023-01-29T03:51:25.204Z,30.25
2023-01-29T03:53:55.960Z,34.95
2023-01-29T03:56:32.322Z,27.98
2023-01-29T03:59:02.513Z,38.55
2023-01-29T04:01:34.539Z,33.85
2023-01-29T04:04:04.909Z,38.55
2023-01-29T04:06:33.936Z,31.98
2023-01-29T04:09:07.379Z,28.08
2023-01-29T04:11:36.305Z,31.02
2023-01-29T04:14:04.174Z,27.55
2023-01-29T04:16:36.029Z,29.83
2023-01-29T04:19:04.536Z,39.10
2023-01-29T04:21:32.929Z,39.17
2023-01-29T04:24:00.697Z,29.52
2023-01-29T04:26:43.807Z,29.00
2023-01-29T04:29:17.693Z,32.78
2023-01-29T04:31:50.769Z,34.45
2023-01-29T04:34:22.890Z,29.50
2023-01-29T04:36:57.488Z,30.38
2023-01-29T04:39:27.024Z,39.08
2023-01-29T04:41:59.659Z,33.45
2023-01-29T04:44:32.554Z,32.58
2023-01-29T04:47:06.754Z,26.85
2023-01-29T04:49:43.469Z,37.40
2023-01-29T04:52:17.881Z,32.35
2023-01-29T04:54:51.642Z,31.10
2023-01-29T04:57:30.381Z,35.53
2023-01-29T05:00:00.481Z,32.55
2023-01-29T05:02:37.165Z,34.00
2023-01-29T05:05:07.382Z,38.03
2023-01-29T05:07:36.689Z,25.42
2023-01-29T05:10:05.389Z,34.97
2023-01-29T05:12:43.405Z,29.02
2023-01-29T05:15:15.140Z,32.53
2023-01-29T05:17:45.175Z,36.47
2023-01-29T05:20:13.861Z,27.80
2023-01-29T05:22:42.794Z,27.88
2023-01-29T05:25:20.458Z,44.38
2023-01-29T05:28:07.261Z,40.83
2023-01-29T05:30:36.168Z,33.60
2023-01-29T05:33:18.589Z,34.03
2023-01-29T05:36:25.935Z,33.13
2023-01-29T05:38:55.041Z,39.60
2023-01-29T05:41:23.413Z,40.45
2023-01-29T05:43:54.407Z,31.50
2023-01-29T05:46:22.167Z,34.03
2023-01-29T05:51:38.827Z,35.28
2023-01-29T05:54:07.437Z,31.45
2023-01-29T05:56:35.101Z,32.97
2023-01-29T05:59:02.778Z,33.88
2023-01-29T06:01:31.031Z,33.90
2023-01-29T06:04:01.087Z,36.17
2023-01-29T06:06:30.992Z,34.65
2023-01-29T06:08:59.037Z,36.45
2023-01-29T06:11:26.822Z,38.30
2023-01-29T06:13:54.762Z,36.30
2023-01-29T06:16:22.487Z,34.15
2023-01-29T06:18:54.547Z,38.28
2023-01-29T06:21:24.151Z,35.90
2023-01-29T06:23:53.394Z,35.88
2023-01-29T06:26:21.100Z,27.77
2023-01-29T06:28:50.036Z,38.72
2023-01-29T06:31:37.771Z,28.42
2023-01-29T06:34:05.790Z,32.50
2023-01-29T06:36:35.082Z,38.08
2023-01-29T06:39:03.567Z,32.45
2023-01-29T06:41:31.532Z,31.02
2023-01-29T06:44:02.530Z,34.63
2023-01-29T06:46:30.569Z,30.13
2023-01-29T06:48:59.236Z,33.10
2023-01-29T06:51:27.145Z,36.63
2023-01-29T06:53:56.443Z,29.52
2023-01-29T06:56:24.895Z,26.48
2023-01-29T06:58:52.805Z,43.13
2023-01-29T07:01:36.884Z,31.48
2023-01-29T07:04:04.669Z,41.78
2023-01-29T07:06:33.162Z,37.08
2023-01-29T07:09:02.466Z,33.88
2023-01-29T07:11:30.556Z,34.60
2023-01-29T07:13:58.329Z,32.88
2023-01-29T07:16:29.340Z,34.92
2023-01-29T07:18:57.370Z,43.63
2023-01-29T07:21:25.302Z,42.60
2023-01-29T07:23:52.861Z,36.35
2023-01-29T07:26:22.184Z,36.00
2023-01-29T07:28:49.698Z,38.28
2023-01-29T07:31:23.519Z,43.95
2023-01-29T07:33:51.678Z,29.48
2023-01-29T07:36:20.262Z,27.85
2023-01-29T07:38:50.616Z,39.85
2023-01-29T07:41:18.597Z,36.58
2023-01-29T07:43:47.938Z,35.58
2023-01-29T07:46:15.835Z,36.60
2023-01-29T07:48:49.686Z,40.22
2023-01-29T07:51:19.552Z,42.33
2023-01-29T07:53:56.548Z,37.72
2023-01-29T07:56:24.080Z,37.10
2023-01-29T07:59:03.026Z,31.80
2023-01-29T08:01:47.630Z,35.75
2023-01-29T08:04:17.548Z,34.92
2023-01-29T08:06:51.101Z,31.55
2023-01-29T08:12:13.266Z,40.88
2023-01-29T08:14:42.807Z,35.30
2023-01-29T08:17:10.707Z,33.63
2023-01-29T08:19:38.565Z,47.10
2023-01-29T08:22:06.854Z,40.38
2023-01-29T08:24:47.645Z,39.33
2023-01-29T08:27:21.680Z,35.42
2023-01-29T08:29:50.654Z,43.38
2023-01-29T08:32:18.178Z,40.65
2023-01-29T08:34:45.654Z,34.45
2023-01-29T08:37:13.490Z,42.65
2023-01-29T08:42:08.457Z,37.95
2023-01-29T08:44:36.085Z,35.80
2023-01-29T08:47:05.047Z,33.15
2023-01-29T08:49:33.018Z,40.13
2023-01-29T08:52:02.996Z,36.90
2023-01-29T08:54:30.701Z,40.78
2023-01-29T08:56:58.660Z,41.38
2023-01-29T08:59:26.218Z,40.08
2023-01-29T09:01:53.825Z,36.55
2023-01-29T09:04:26.063Z,47.17
2023-01-29T09:06:53.761Z,41.75
2023-01-29T09:09:21.512Z,39.80
2023-01-29T09:11:49.226Z,40.80
2023-01-29T09:14:16.891Z,39.42
2023-01-29T09:16:47.358Z,37.38
2023-01-29T09:19:15.047Z,36.72
2023-01-29T09:21:44.199Z,45.92
2023-01-29T09:24:12.174Z,33.00
2023-01-29T09:26:40.242Z,32.97
2023-01-29T09:29:08.298Z,30.63
2023-01-29T09:31:36.304Z,36.65
2023-01-29T09:34:04.114Z,34.78
2023-01-29T09:36:31.645Z,31.58
2023-01-29T09:39:00.498Z,31.42
2023-01-29T09:41:33.365Z,29.88
2023-01-29T09:44:02.536Z,32.58
2023-01-29T09:46:34.664Z,32.90
2023-01-29T09:49:04.004Z,37.15
2023-01-29T09:51:32.913Z,27.90
2023-01-29T09:54:07.227Z,29.67
2023-01-29T09:56:36.283Z,31.50
2023-01-29T09:59:03.873Z,33.75
2023-01-29T10:01:34.766Z,30.25
2023-01-29T10:04:17.723Z,26.05
2023-01-29T10:06:51.592Z,28.08
2023-01-29T10:09:46.427Z,27.50
2023-01-29T10:12:22.783Z,25.05
2023-01-29T10:14:54.915Z,29.35
2023-01-29T10:17:32.714Z,36.42
2023-01-29T10:20:17.570Z,29.50
2023-01-29T10:22:51.762Z,28.50
2023-01-29T10:25:21.788Z,32.08
2023-01-29T10:27:52.830Z,30.23
2023-01-29T10:30:29.410Z,29.40
2023-01-29T10:33:00.892Z,36.28
2023-01-29T10:35:31.375Z,31.52
2023-01-29T10:38:00.039Z,32.22
2023-01-29T10:40:30.762Z,29.88
2023-01-29T10:43:04.954Z,28.40
2023-01-29T10:48:06.340Z,34.92
2023-01-29T10:50:40.880Z,31.77
2023-01-29T10:53:18.800Z,26.63
2023-01-29T10:55:52.555Z,35.78
2023-01-29T10:58:29.879Z,33.55
2023-01-29T11:00:57.496Z,24.02
2023-01-29T11:06:16.190Z,23.77
2023-01-29T11:08:47.315Z,30.38
2023-01-29T11:11:15.714Z,31.30
2023-01-29T11:13:49.782Z,28.60
2023-01-29T11:16:17.287Z,35.03
2023-01-29T11:18:52.637Z,30.15
2023-01-29T11:21:20.179Z,25.30
2023-01-29T11:23:47.967Z,26.77
2023-01-29T11:26:19.203Z,26.33
2023-01-29T11:28:48.924Z,26.40
2023-01-29T11:31:17.940Z,24.20
2023-01-29T11:33:46.859Z,30.85
2023-01-29T11:36:29.375Z,19.85
2023-01-29T11:39:15.296Z,24.90
2023-01-29T11:41:48.845Z,19.80
2023-01-29T11:44:21.529Z,25.52
2023-01-29T11:46:49.732Z,24.58
2023-01-29T11:49:23.610Z,20.88
2023-01-29T11:51:53.483Z,21.67
2023-01-29T11:54:21.248Z,19.20
2023-01-29T11:56:49.548Z,19.83
2023-01-29T11:59:27.461Z,21.80
2023-01-29T12:01:55.899Z,22.67
2023-01-29T12:04:25.586Z,32.00
2023-01-29T12:10:03.719Z,25.23
2023-01-29T12:12:37.128Z,28.58
2023-01-29T12:15:15.591Z,21.55
2023-01-29T12:17:45.730Z,26.85
2023-01-29T12:20:15.802Z,27.08
2023-01-29T12:22:50.412Z,19.05
2023-01-29T12:25:25.453Z,21.98
2023-01-29T12:27:57.362Z,23.50
2023-01-29T12:30:30.497Z,23.10
2023-01-29T12:33:00.678Z,21.17
2023-01-29T12:35:29.446Z,23.80
2023-01-29T12:37:59.622Z,27.00
2023-01-29T12:40:29.678Z,22.08
2023-01-29T12:42:58.846Z,23.15
2023-01-29T12:45:28.789Z,22.88
2023-01-29T12:48:06.135Z,24.75
2023-01-29T12:50:35.050Z,25.15
2023-01-29T12:53:06.790Z,21.45
2023-01-29T12:55:38.396Z,21.75
2023-01-29T13:07:30.007Z,19.17
2023-01-29T13:10:01.040Z,17.05
2023-01-29T13:16:56.391Z,20.88
2023-01-29T13:19:28.929Z,21.40
2023-01-29T13:22:01.401Z,22.73
2023-01-29T13:25:02.325Z,20.38
2023-01-29T13:27:41.789Z,21.58
2023-01-29T13:33:21.927Z,19.70
2023-01-29T13:35:50.303Z,22.13
2023-01-29T13:38:23.664Z,20.70
2023-01-29T13:40:53.827Z,20.20
2023-01-29T13:43:22.597Z,17.83
2023-01-29T13:45:52.090Z,21.95
2023-01-29T13:49:08.324Z,22.65
2023-01-29T13:51:37.777Z,14.55
2023-01-29T13:54:08.176Z,22.35
2023-01-29T13:56:49.016Z,21.20
2023-01-29T13:59:34.628Z,20.27
2023-01-29T14:02:06.144Z,19.98
2023-01-29T14:04:51.480Z,27.90
2023-01-29T14:08:05.794Z,21.77
2023-01-29T14:11:00.081Z,23.73
2023-01-29T14:13:29.812Z,24.17
2023-01-29T14:16:18.802Z,28.05
2023-01-29T14:18:57.507Z,26.85
2023-01-29T14:21:28.515Z,26.50
2023-01-29T14:23:57.826Z,24.42
2023-01-29T14:26:30.874Z,23.10
2023-01-29T14:29:03.028Z,24.85
2023-01-29T14:31:38.708Z,23.65
2023-01-29T14:34:09.379Z,21.83
2023-01-29T14:36:41.085Z,29.73
2023-01-29T14:39:19.717Z,27.85
2023-01-29T14:41:47.431Z,23.83
2023-01-29T14:45:03.235Z,27.40
2023-01-29T14:47:50.266Z,28.00
2023-01-29T14:50:38.552Z,27.85
2023-01-29T14:53:11.200Z,21.00
2023-01-29T14:55:40.403Z,26.27
2023-01-29T14:58:14.169Z,23.35
2023-01-29T15:00:46.573Z,26.48
2023-01-29T15:03:25.487Z,26.90
2023-01-29T15:05:53.732Z,25.88
2023-01-29T15:08:30.213Z,25.42
2023-01-29T15:11:16.251Z,27.33
2023-01-29T15:14:30.399Z,33.28
2023-01-29T15:17:11.437Z,29.73
2023-01-29T15:19:44.996Z,31.40
2023-01-29T15:22:13.770Z,30.25
2023-01-29T15:24:43.779Z,27.30
2023-01-29T15:27:14.597Z,30.10
2023-01-29T15:29:46.607Z,26.67
2023-01-29T15:32:17.519Z,26.92
2023-01-29T15:34:45.589Z,26.05
2023-01-29T15:37:30.839Z,23.02
2023-01-29T15:40:08.415Z,27.08
2023-01-29T15:42:44.766Z,25.45
2023-01-29T15:45:22.568Z,22.60
2023-01-29T15:47:53.298Z,25.63
2023-01-29T15:50:22.422Z,26.27
2023-01-29T15:52:52.557Z,23.67
2023-01-29T15:55:24.020Z,23.63
2023-01-29T15:57:52.010Z,26.35
2023-01-29T16:00:31.162Z,21.90
2023-01-29T16:03:20.743Z,25.73
2023-01-29T16:05:49.273Z,22.17
2023-01-29T16:08:31.253Z,23.33
2023-01-29T16:11:10.046Z,20.67
2023-01-29T16:13:44.355Z,25.98
2023-01-29T16:16:30.055Z,26.25
2023-01-29T16:19:04.168Z,19.02
2023-01-29T16:24:28.908Z,20.48
2023-01-29T16:27:04.946Z,24.08
2023-01-29T16:29:46.513Z,17.38
2023-01-29T16:32:16.588Z,18.90
2023-01-29T16:34:48.324Z,22.10
2023-01-29T16:37:47.116Z,24.75
2023-01-29T16:40:16.479Z,23.05
2023-01-29T16:42:46.585Z,19.17
2023-01-29T16:45:27.386Z,16.65
2023-01-29T16:48:15.045Z,19.15
2023-01-29T16:50:54.274Z,16.42
2023-01-29T16:53:25.271Z,17.20
2023-01-29T16:55:53.822Z,15.13
2023-01-29T16:58:23.781Z,17.13
2023-01-29T17:00:52.552Z,17.75
2023-01-29T17:03:21.198Z,18.05
2023-01-29T17:05:50.989Z,16.23
2023-01-29T17:08:21.745Z,18.63
2023-01-29T17:10:49.595Z,20.67
2023-01-29T17:13:21.058Z,15.15
2023-01-29T17:15:50.764Z,16.55
2023-01-29T17:18:20.363Z,22.00
2023-01-29T17:20:48.481Z,15.32
2023-01-29T17:23:19.323Z,13.80
2023-01-29T17:25:47.175Z,15.10
2023-01-29T17:28:16.092Z,14.13
2023-01-29T17:30:50.572Z,15.30
2023-01-29T17:33:25.993Z,15.80
2023-01-29T17:35:53.877Z,14.32
2023-01-29T17:38:26.440Z,18.52
2023-01-29T17:40:56.308Z,13.52
2023-01-29T17:43:23.950Z,18.88
2023-01-29T17:45:52.518Z,14.07
2023-01-29T17:48:21.874Z,19.40
2023-01-29T17:50:53.469Z,15.48
2023-01-29T17:53:21.948Z,13.77
2023-01-29T17:55:50.155Z,13.75
2023-01-29T17:58:19.306Z,15.95
2023-01-29T18:00:46.803Z,19.67
2023-01-29T18:03:14.788Z,15.25
2023-01-29T18:05:45.203Z,13.70
2023-01-29T18:08:16.355Z,14.60
2023-01-29T18:10:45.401Z,12.95
2023-01-29T18:13:22.816Z,12.18
2023-01-29T18:15:50.849Z,15.13
2023-01-29T18:18:20.023Z,17.02
2023-01-29T18:20:47.766Z,14.98
2023-01-29T18:23:15.509Z,14.02
2023-01-29T18:25:43.292Z,25.27
2023-01-29T18:28:14.178Z,22.15
2023-01-29T18:30:50.848Z,20.67
2023-01-29T18:33:19.582Z,21.10
2023-01-29T18:35:48.166Z,17.23
2023-01-29T18:38:16.187Z,15.23
2023-01-29T18:40:45.168Z,18.48
2023-01-29T18:43:14.651Z,24.08
2023-01-29T18:45:42.245Z,19.27
2023-01-29T18:48:10.427Z,18.20
2023-01-29T18:50:37.932Z,17.63
2023-01-29T18:53:05.749Z,18.30
2023-01-29T18:55:33.753Z,19.90
2023-01-29T18:58:27.011Z,23.33
2023-01-29T19:00:51.660Z,20.52
2023-01-29T19:03:19.461Z,25.30
2023-01-29T19:05:47.004Z,19.92
2023-01-29T19:08:14.616Z,21.58
2023-01-29T19:10:42.410Z,19.23
2023-01-29T19:13:10.433Z,20.77
2023-01-29T19:15:40.886Z,24.45
2023-01-29T19:18:09.809Z,15.38
2023-01-29T19:20:40.239Z,17.67
2023-01-29T19:23:07.975Z,12.52
2023-01-29T19:25:38.103Z,15.38
2023-01-29T19:28:06.386Z,10.40
2023-01-29T19:30:34.201Z,9.82
2023-01-29T19:33:02.049Z,11.48
2023-01-29T19:35:34.227Z,9.88
2023-01-29T19:38:03.138Z,11.32
2023-01-29T19:40:31.018Z,12.57
2023-01-29T19:42:58.906Z,13.32
2023-01-29T19:45:42.076Z,12.68
2023-01-29T19:48:16.125Z,16.60
2023-01-29T19:50:52.175Z,7.57
2023-01-29T19:53:20.166Z,11.70
2023-01-29T19:55:49.910Z,9.88
2023-01-29T19:58:21.279Z,12.00
2023-01-29T20:00:59.576Z,21.83
2023-01-29T20:03:31.014Z,18.45
2023-01-29T20:06:04.896Z,17.92
2023-01-29T20:08:40.274Z,20.08
2023-01-29T20:11:27.533Z,17.65
2023-01-29T20:13:55.739Z,16.90
2023-01-29T20:16:33.625Z,21.10
2023-01-29T20:19:13.701Z,26.67
2023-01-29T20:21:50.458Z,14.60
2023-01-29T20:24:24.482Z,18.80
2023-01-29T20:29:58.609Z,15.10
2023-01-29T20:32:38.177Z,16.92
2023-01-29T20:35:09.381Z,20.70
2023-01-29T20:38:12.500Z,15.65
2023-01-29T20:43:52.662Z,25.00
2023-01-29T20:46:48.281Z,25.35
2023-01-29T20:53:13.049Z,18.13
2023-01-29T20:55:41.645Z,29.75
2023-01-29T20:58:14.719Z,15.50
2023-01-29T21:00:44.225Z,21.17
2023-01-29T21:03:12.197Z,19.20
2023-01-29T21:05:40.695Z,22.58
2023-01-29T21:08:08.847Z,22.40
2023-01-29T21:13:19.818Z,17.25
2023-01-29T21:15:47.698Z,17.08
2023-01-29T21:18:17.476Z,19.77
2023-01-29T21:20:45.608Z,18.92
2023-01-29T21:23:13.799Z,13.95
2023-01-29T21:25:49.079Z,19.90
2023-01-29T21:28:17.404Z,21.10
2023-01-29T21:30:48.940Z,17.40
2023-01-29T21:33:16.685Z,16.25
2023-01-29T21:35:44.681Z,18.40
2023-01-29T21:38:12.333Z,18.88
2023-01-29T21:40:39.976Z,16.27
2023-01-29T21:43:12.314Z,22.08
2023-01-29T21:45:40.793Z,15.10
2023-01-29T21:48:10.656Z,12.02
2023-01-29T21:50:38.373Z,22.17
2023-01-29T21:53:06.102Z,17.08
2023-01-29T21:55:38.254Z,16.58
2023-01-29T21:58:06.074Z,13.80
2023-01-29T22:00:33.654Z,14.80
2023-01-29T22:03:01.317Z,15.43
2023-01-29T22:05:30.691Z,13.40
2023-01-29T22:07:58.332Z,14.57
2023-01-29T22:10:26.039Z,16.60
2023-01-29T22:12:54.312Z,18.27
2023-01-29T22:15:24.274Z,15.27
2023-01-29T22:17:53.098Z,13.07
2023-01-29T22:20:32.307Z,18.40
2023-01-29T22:23:01.525Z,14.40
2023-01-29T22:25:29.249Z,13.77
2023-01-29T22:27:56.884Z,13.23
2023-01-29T22:30:31.802Z,16.75
2023-01-29T22:33:01.441Z,16.67
2023-01-29T22:35:29.095Z,18.45
2023-01-29T22:37:57.103Z,19.58
2023-01-29T22:40:27.002Z,14.95
2023-01-29T22:42:54.901Z,14.48
2023-01-29T22:45:23.056Z,16.00
2023-01-29T22:47:50.916Z,16.00
2023-01-29T22:50:19.265Z,10.55
2023-01-29T22:52:53.740Z,13.82
2023-01-29T22:55:22.025Z,12.57
2023-01-29T22:57:56.605Z,18.73
2023-01-29T23:00:24.372Z,14.30
2023-01-29T23:02:52.446Z,19.35
2023-01-29T23:05:20.578Z,13.50
2023-01-29T23:07:49.350Z,14.20
2023-01-29T23:10:17.699Z,22.80
2023-01-29T23:12:46.426Z,18.13
2023-01-29T23:15:16.083Z,22.55
2023-01-29T23:17:48.185Z,19.23
2023-01-29T23:20:16.670Z,18.80
2023-01-29T23:22:44.548Z,19.17
2023-01-29T23:25:12.269Z,16.75
2023-01-29T23:27:38.954Z,20.85
2023-01-29T23:30:12.381Z,25.85
2023-01-29T23:32:42.066Z,18.80
2023-01-29T23:35:12.864Z,23.73
2023-01-29T23:37:41.202Z,29.80
2023-01-29T23:42:56.896Z,27.10
2023-01-29T23:45:26.909Z,35.70
2023-01-29T23:48:11.358Z,19.67
2023-01-29T23:50:41.058Z,29.23
2023-01-29T23:53:09.100Z,18.60
2023-01-29T23:55:37.109Z,24.13
2023-01-29T23:58:05.292Z,37.58
